PWSweather.com
Personal Weather Stations
Station Observations
KCOBLACK1
Chalet Park, Black Hawk, CO 80422

Chalet ParkBlack Hawk, CO 80422

Lat: 39.8294, Lon: -105.48

Elevation: 9370

Station Type: Vantage Pro2

http://www.oscaranddeb.com/weather

Latest ConditionsUpdated 7:35:00 AM MST Friday, Nov 24, 2017
Currently Today's Max Today's Min Today's Average
Temperature 44.6°F7.0°C 47.7°F8.7°C 42.0°F5.6°C 45.7°F7.6°C
Dew Point 21.2°F-6.0°C 23.9°F-4.5°C 8.6°F-13.0°C 16.1°F-8.8°C
Winds 22.4 mph SW36.0 kmh SW 36.5 mph SW58.7 kmh SW - 24.5 mph 39.4 kmh
Wind Gusts 42.0 mph67.6 kmh 68.0 mph109.4 kmh - -
Humidity 39% 48% 20% 31%
Pressure 29.60 in1002.4 mb 29.70 in1005.8 mb 29.50 in999.0 mb -
Hour Temp Dew Point Humidity Winds Wind Gusts Pressure Precip Precip Rate Daily Precip Total
07:35 AM 44.6°F7.0°C 21.2°F-6.0°C 39% 22.4 mph SW36.0 kmh SW 42.0 mph67.6 kmh 29.60 in1002.4 mb 0.00 in0.0 mm 0.00 in0.0 mm 0.00 in0.0 mm
07:30 AM 44.6°F7.0°C 21.2°F-6.0°C 39% 25.3 mph SW40.7 kmh SW 46.0 mph74.0 kmh 29.60 in1002.4 mb 0.00 in0.0 mm 0.00 in0.0 mm 0.00 in0.0 mm
07:25 AM 44.5°F6.9°C 21.1°F-6.1°C 39% 27.9 mph SW44.9 kmh SW 46.0 mph74.0 kmh 29.60 in1002.4 mb 0.00 in0.0 mm 0.00 in0.0 mm 0.00 in0.0 mm
07:20 AM 44.3°F6.8°C 21.5°F-5.8°C 40% 26.6 mph SW42.8 kmh SW 48.0 mph77.2 kmh 29.59 in1002.0 mb 0.00 in0.0 mm 0.00 in0.0 mm 0.00 in0.0 mm
07:15 AM 44.1°F6.7°C 21.3°F-5.9°C 40% 26.0 mph WSW41.8 kmh WSW 49.0 mph78.9 kmh 29.58 in1001.7 mb 0.00 in0.0 mm 0.00 in0.0 mm 0.00 in0.0 mm
07:10 AM 43.9°F6.6°C 21.7°F-5.7°C 41% 28.1 mph SW45.2 kmh SW 57.0 mph91.7 kmh 29.58 in1001.7 mb 0.00 in0.0 mm 0.00 in0.0 mm 0.00 in0.0 mm
07:05 AM 43.7°F6.5°C 21.6°F-5.8°C 41% 28.3 mph WSW45.5 kmh WSW 57.0 mph91.7 kmh 29.56 in1001.0 mb 0.00 in0.0 mm 0.00 in0.0 mm 0.00 in0.0 mm
07:00 AM 43.3°F6.3°C 22.3°F-5.4°C 43% 28.1 mph SW45.2 kmh SW 54.0 mph86.9 kmh 29.56 in1001.0 mb 0.00 in0.0 mm 0.00 in0.0 mm 0.00 in0.0 mm
06:55 AM 43.0°F6.1°C 22.6°F-5.2°C 44% 25.8 mph WSW41.5 kmh WSW 54.0 mph86.9 kmh 29.55 in1000.7 mb 0.00 in0.0 mm 0.00 in0.0 mm 0.00 in0.0 mm
06:50 AM 42.9°F6.1°C 23.0°F-5.0°C 45% 26.7 mph WSW43.0 kmh WSW 53.0 mph85.3 kmh 29.57 in1001.4 mb 0.00 in0.0 mm 0.00 in0.0 mm 0.00 in0.0 mm
06:45 AM 42.2°F5.7°C 23.4°F-4.8°C 47% 24.3 mph WSW39.1 kmh WSW 53.0 mph85.3 kmh 29.56 in1001.0 mb 0.00 in0.0 mm 0.00 in0.0 mm 0.00 in0.0 mm
06:40 AM 42.0°F5.6°C 23.7°F-4.6°C 48% 26.4 mph WSW42.5 kmh WSW 59.0 mph95.0 kmh 29.56 in1001.0 mb 0.00 in0.0 mm 0.00 in0.0 mm 0.00 in0.0 mm
06:35 AM 42.2°F5.7°C 23.9°F-4.5°C 48% 34.6 mph SW55.7 kmh SW 63.0 mph101.4 kmh 29.54 in1000.3 mb 0.00 in0.0 mm 0.00 in0.0 mm 0.00 in0.0 mm
06:30 AM 43.8°F6.6°C 22.2°F-5.4°C 42% 36.5 mph SW58.7 kmh SW 63.0 mph101.4 kmh 29.55 in1000.7 mb 0.00 in0.0 mm 0.00 in0.0 mm 0.00 in0.0 mm
06:25 AM 44.8°F7.1°C 20.1°F-6.6°C 37% 35.4 mph SW57.0 kmh SW 59.0 mph95.0 kmh 29.53 in1000.0 mb 0.00 in0.0 mm 0.00 in0.0 mm 0.00 in0.0 mm
06:20 AM 44.8°F7.1°C 19.5°F-6.9°C 36% 32.4 mph WSW52.1 kmh WSW 59.0 mph95.0 kmh 29.50 in999.0 mb 0.00 in0.0 mm 0.00 in0.0 mm 0.00 in0.0 mm
06:15 AM 44.7°F7.1°C 19.4°F-7.0°C 36% 32.9 mph SW52.9 kmh SW 60.0 mph96.6 kmh 29.52 in999.7 mb 0.00 in0.0 mm 0.00 in0.0 mm 0.00 in0.0 mm
06:10 AM 44.6°F7.0°C 19.3°F-7.1°C 36% 34.5 mph WSW55.5 kmh WSW 60.0 mph96.6 kmh 29.53 in1000.0 mb 0.00 in0.0 mm 0.00 in0.0 mm 0.00 in0.0 mm
06:05 AM 44.2°F6.8°C 19.6°F-6.9°C 37% 27.3 mph WSW43.9 kmh WSW 48.0 mph77.2 kmh 29.52 in999.7 mb 0.00 in0.0 mm 0.00 in0.0 mm 0.00 in0.0 mm
06:00 AM 43.4°F6.3°C 20.1°F-6.6°C 39% 23.9 mph WSW38.5 kmh WSW 56.0 mph90.1 kmh 29.54 in1000.3 mb 0.00 in0.0 mm 0.00 in0.0 mm 0.00 in0.0 mm
05:55 AM 42.9°F6.1°C 21.4°F-5.9°C 42% 25.0 mph WSW40.2 kmh WSW 68.0 mph109.4 kmh 29.54 in1000.3 mb 0.00 in0.0 mm 0.00 in0.0 mm 0.00 in0.0 mm
05:50 AM 44.0°F6.7°C 20.7°F-6.3°C 39% 32.4 mph SW52.1 kmh SW 68.0 mph109.4 kmh 29.53 in1000.0 mb 0.00 in0.0 mm 0.00 in0.0 mm 0.00 in0.0 mm
05:45 AM 45.6°F7.6°C 17.5°F-8.1°C 32% 29.0 mph WSW46.7 kmh WSW 59.0 mph95.0 kmh 29.53 in1000.0 mb 0.00 in0.0 mm 0.00 in0.0 mm 0.00 in0.0 mm
05:40 AM 45.5°F7.5°C 16.6°F-8.6°C 31% 27.0 mph WSW43.5 kmh WSW 60.0 mph96.6 kmh 29.53 in1000.0 mb 0.00 in0.0 mm 0.00 in0.0 mm 0.00 in0.0 mm
05:35 AM 45.3°F7.4°C 16.5°F-8.6°C 31% 27.3 mph WSW43.9 kmh WSW 60.0 mph96.6 kmh 29.53 in1000.0 mb 0.00 in0.0 mm 0.00 in0.0 mm 0.00 in0.0 mm
05:30 AM 45.4°F7.4°C 16.6°F-8.6°C 31% 31.1 mph WSW50.1 kmh WSW 55.0 mph88.5 kmh 29.53 in1000.0 mb 0.00 in0.0 mm 0.00 in0.0 mm 0.00 in0.0 mm
05:25 AM 45.4°F7.4°C 16.6°F-8.6°C 31% 27.6 mph SW44.4 kmh SW 55.0 mph88.5 kmh 29.53 in1000.0 mb 0.00 in0.0 mm 0.00 in0.0 mm 0.00 in0.0 mm
05:20 AM 45.7°F7.6°C 16.1°F-8.8°C 30% 30.3 mph WSW48.8 kmh WSW 55.0 mph88.5 kmh 29.52 in999.7 mb 0.00 in0.0 mm 0.00 in0.0 mm 0.00 in0.0 mm
05:15 AM 45.7°F7.6°C 16.1°F-8.8°C 30% 30.8 mph W49.6 kmh W 50.0 mph80.5 kmh 29.53 in1000.0 mb 0.00 in0.0 mm 0.00 in0.0 mm 0.00 in0.0 mm
05:10 AM 45.5°F7.5°C 16.6°F-8.6°C 31% 27.7 mph WSW44.6 kmh WSW 65.0 mph104.6 kmh 29.52 in999.7 mb 0.00 in0.0 mm 0.00 in0.0 mm 0.00 in0.0 mm
05:05 AM 45.6°F7.6°C 16.7°F-8.5°C 31% 28.7 mph WSW46.2 kmh WSW 65.0 mph104.6 kmh 29.53 in1000.0 mb 0.00 in0.0 mm 0.00 in0.0 mm 0.00 in0.0 mm
05:00 AM 45.6°F7.6°C 16.7°F-8.5°C 31% 31.1 mph WSW50.1 kmh WSW 60.0 mph96.6 kmh 29.54 in1000.3 mb 0.00 in0.0 mm 0.00 in0.0 mm 0.00 in0.0 mm
04:55 AM 45.7°F7.6°C 16.8°F-8.4°C 31% 33.4 mph WSW53.8 kmh WSW 60.0 mph96.6 kmh 29.53 in1000.0 mb 0.00 in0.0 mm 0.00 in0.0 mm 0.00 in0.0 mm
04:50 AM 46.0°F7.8°C 15.5°F-9.2°C 29% 26.7 mph WSW43.0 kmh WSW 55.0 mph88.5 kmh 29.55 in1000.7 mb 0.00 in0.0 mm 0.00 in0.0 mm 0.00 in0.0 mm
04:45 AM 46.1°F7.8°C 14.8°F-9.6°C 28% 26.1 mph WSW42.0 kmh WSW 64.0 mph103.0 kmh 29.55 in1000.7 mb 0.00 in0.0 mm 0.00 in0.0 mm 0.00 in0.0 mm
04:40 AM 46.1°F7.8°C 14.0°F-10.0°C 27% 32.3 mph SW52.0 kmh SW 64.0 mph103.0 kmh 29.55 in1000.7 mb 0.00 in0.0 mm 0.00 in0.0 mm 0.00 in0.0 mm
04:35 AM 46.2°F7.9°C 14.1°F-9.9°C 27% 26.9 mph WSW43.3 kmh WSW 55.0 mph88.5 kmh 29.56 in1001.0 mb 0.00 in0.0 mm 0.00 in0.0 mm 0.00 in0.0 mm
04:30 AM 46.3°F7.9°C 14.2°F-9.9°C 27% 23.4 mph WSW37.7 kmh WSW 46.0 mph74.0 kmh 29.55 in1000.7 mb 0.00 in0.0 mm 0.00 in0.0 mm 0.00 in0.0 mm
04:25 AM 46.4°F8.0°C 14.3°F-9.8°C 27% 23.1 mph WSW37.2 kmh WSW 52.0 mph83.7 kmh 29.57 in1001.4 mb 0.00 in0.0 mm 0.00 in0.0 mm 0.00 in0.0 mm
04:20 AM 46.5°F8.1°C 14.3°F-9.8°C 27% 28.6 mph WSW46.0 kmh WSW 52.0 mph83.7 kmh 29.57 in1001.4 mb 0.00 in0.0 mm 0.00 in0.0 mm 0.00 in0.0 mm
04:15 AM 46.5°F8.1°C 14.3°F-9.8°C 27% 25.0 mph WSW40.2 kmh WSW 55.0 mph88.5 kmh 29.58 in1001.7 mb 0.00 in0.0 mm 0.00 in0.0 mm 0.00 in0.0 mm
04:10 AM 46.5°F8.1°C 14.3°F-9.8°C 27% 26.3 mph WSW42.3 kmh WSW 55.0 mph88.5 kmh 29.59 in1002.0 mb 0.00 in0.0 mm 0.00 in0.0 mm 0.00 in0.0 mm
04:05 AM 46.9°F8.3°C 13.8°F-10.1°C 26% 25.8 mph WSW41.5 kmh WSW 52.0 mph83.7 kmh 29.59 in1002.0 mb 0.00 in0.0 mm 0.00 in0.0 mm 0.00 in0.0 mm
04:00 AM 47.0°F8.3°C 13.0°F-10.6°C 25% 25.1 mph WSW40.4 kmh WSW 52.0 mph83.7 kmh 29.58 in1001.7 mb 0.00 in0.0 mm 0.00 in0.0 mm 0.00 in0.0 mm
03:55 AM 46.8°F8.2°C 12.9°F-10.6°C 25% 20.4 mph WSW32.8 kmh WSW 49.0 mph78.9 kmh 29.59 in1002.0 mb 0.00 in0.0 mm 0.00 in0.0 mm 0.00 in0.0 mm
03:50 AM 46.9°F8.3°C 12.9°F-10.6°C 25% 25.5 mph WSW41.0 kmh WSW 49.0 mph78.9 kmh 29.58 in1001.7 mb 0.00 in0.0 mm 0.00 in0.0 mm 0.00 in0.0 mm
03:45 AM 47.0°F8.3°C 12.1°F-11.1°C 24% 22.8 mph WSW36.7 kmh WSW 49.0 mph78.9 kmh 29.57 in1001.4 mb 0.00 in0.0 mm 0.00 in0.0 mm 0.00 in0.0 mm
03:40 AM 47.3°F8.5°C 11.4°F-11.4°C 23% 24.1 mph WSW38.8 kmh WSW 47.0 mph75.6 kmh 29.58 in1001.7 mb 0.00 in0.0 mm 0.00 in0.0 mm 0.00 in0.0 mm
03:35 AM 47.3°F8.5°C 11.4°F-11.4°C 23% 22.3 mph WSW35.9 kmh WSW 47.0 mph75.6 kmh 29.61 in1002.7 mb 0.00 in0.0 mm 0.00 in0.0 mm 0.00 in0.0 mm
03:30 AM 47.5°F8.6°C 10.6°F-11.9°C 22% 22.9 mph WSW36.9 kmh WSW 50.0 mph80.5 kmh 29.59 in1002.0 mb 0.00 in0.0 mm 0.00 in0.0 mm 0.00 in0.0 mm
03:25 AM 47.5°F8.6°C 10.6°F-11.9°C 22% 19.7 mph WSW31.7 kmh WSW 50.0 mph80.5 kmh 29.60 in1002.4 mb 0.00 in0.0 mm 0.00 in0.0 mm 0.00 in0.0 mm
03:20 AM 47.7°F8.7°C 8.6°F-13.0°C 20% 21.4 mph WSW34.4 kmh WSW 50.0 mph80.5 kmh 29.60 in1002.4 mb 0.00 in0.0 mm 0.00 in0.0 mm 0.00 in0.0 mm
03:15 AM 47.5°F8.6°C 9.5°F-12.5°C 21% 18.2 mph WSW29.3 kmh WSW 41.0 mph66.0 kmh 29.59 in1002.0 mb 0.00 in0.0 mm 0.00 in0.0 mm 0.00 in0.0 mm
03:10 AM 47.6°F8.7°C 9.6°F-12.4°C 21% 18.9 mph WSW30.4 kmh WSW 50.0 mph80.5 kmh 29.59 in1002.0 mb 0.00 in0.0 mm 0.00 in0.0 mm 0.00 in0.0 mm
03:05 AM 47.6°F8.7°C 10.7°F-11.8°C 22% 19.8 mph WSW31.9 kmh WSW 50.0 mph80.5 kmh 29.60 in1002.4 mb 0.00 in0.0 mm 0.00 in0.0 mm 0.00 in0.0 mm
03:00 AM 47.6°F8.7°C 11.7°F-11.3°C 23% 20.6 mph WSW33.2 kmh WSW 47.0 mph75.6 kmh 29.61 in1002.7 mb 0.00 in0.0 mm 0.00 in0.0 mm 0.00 in0.0 mm
02:55 AM 47.4°F8.6°C 12.4°F-10.9°C 24% 17.6 mph WSW28.3 kmh WSW 41.0 mph66.0 kmh 29.62 in1003.0 mb 0.00 in0.0 mm 0.00 in0.0 mm 0.00 in0.0 mm
02:50 AM 47.2°F8.4°C 12.3°F-10.9°C 24% 17.6 mph WSW28.3 kmh WSW 40.0 mph64.4 kmh 29.61 in1002.7 mb 0.00 in0.0 mm 0.00 in0.0 mm 0.00 in0.0 mm
02:45 AM 46.6°F8.1°C 13.6°F-10.2°C 26% 14.8 mph WSW23.8 kmh WSW 36.0 mph57.9 kmh 29.63 in1003.4 mb 0.00 in0.0 mm 0.00 in0.0 mm 0.00 in0.0 mm
02:40 AM 46.0°F7.8°C 13.1°F-10.5°C 26% 14.0 mph WSW22.5 kmh WSW 35.0 mph56.3 kmh 29.65 in1004.1 mb 0.00 in0.0 mm 0.00 in0.0 mm 0.00 in0.0 mm
02:35 AM 45.8°F7.7°C 13.7°F-10.2°C 27% 18.5 mph SW29.8 kmh SW 43.0 mph69.2 kmh 29.66 in1004.4 mb 0.00 in0.0 mm 0.00 in0.0 mm 0.00 in0.0 mm
02:30 AM 45.6°F7.6°C 13.6°F-10.2°C 27% 22.2 mph SW35.7 kmh SW 43.0 mph69.2 kmh 29.66 in1004.4 mb 0.00 in0.0 mm 0.00 in0.0 mm 0.00 in0.0 mm
02:25 AM 45.5°F7.5°C 14.3°F-9.8°C 28% 19.8 mph SW31.9 kmh SW 40.0 mph64.4 kmh 29.67 in1004.7 mb 0.00 in0.0 mm 0.00 in0.0 mm 0.00 in0.0 mm
02:20 AM 45.6°F7.6°C 14.4°F-9.8°C 28% 13.9 mph WSW22.4 kmh WSW 37.0 mph59.5 kmh 29.67 in1004.7 mb 0.00 in0.0 mm 0.00 in0.0 mm 0.00 in0.0 mm
02:15 AM 45.9°F7.7°C 13.8°F-10.1°C 27% 20.0 mph SW32.2 kmh SW 37.0 mph59.5 kmh 29.68 in1005.1 mb 0.00 in0.0 mm 0.00 in0.0 mm 0.00 in0.0 mm
02:10 AM 46.1°F7.8°C 13.1°F-10.5°C 26% 14.7 mph SW23.7 kmh SW 37.0 mph59.5 kmh 29.68 in1005.1 mb 0.00 in0.0 mm 0.00 in0.0 mm 0.00 in0.0 mm
02:05 AM 46.4°F8.0°C 13.4°F-10.3°C 26% 19.6 mph SW31.5 kmh SW 47.0 mph75.6 kmh 29.67 in1004.7 mb 0.00 in0.0 mm 0.00 in0.0 mm 0.00 in0.0 mm
02:00 AM 46.9°F8.3°C 12.9°F-10.6°C 25% 21.9 mph SW35.2 kmh SW 47.0 mph75.6 kmh 29.67 in1004.7 mb 0.00 in0.0 mm 0.00 in0.0 mm 0.00 in0.0 mm
01:55 AM 47.2°F8.4°C 12.3°F-10.9°C 24% 17.7 mph SW28.5 kmh SW 37.0 mph59.5 kmh 29.66 in1004.4 mb 0.00 in0.0 mm 0.00 in0.0 mm 0.00 in0.0 mm
01:50 AM 47.5°F8.6°C 11.6°F-11.3°C 23% 19.1 mph SW30.7 kmh SW 40.0 mph64.4 kmh 29.65 in1004.1 mb 0.00 in0.0 mm 0.00 in0.0 mm 0.00 in0.0 mm
01:45 AM 47.6°F8.7°C 11.7°F-11.3°C 23% 23.5 mph SW37.8 kmh SW 46.0 mph74.0 kmh 29.63 in1003.4 mb 0.00 in0.0 mm 0.00 in0.0 mm 0.00 in0.0 mm
01:40 AM 47.4°F8.6°C 10.5°F-11.9°C 22% 24.7 mph SW39.8 kmh SW 50.0 mph80.5 kmh 29.62 in1003.0 mb 0.00 in0.0 mm 0.00 in0.0 mm 0.00 in0.0 mm
01:35 AM 46.8°F8.2°C 11.9°F-11.2°C 24% 28.5 mph SW45.9 kmh SW 50.0 mph80.5 kmh 29.62 in1003.0 mb 0.00 in0.0 mm 0.00 in0.0 mm 0.00 in0.0 mm
01:30 AM 46.2°F7.9°C 13.2°F-10.4°C 26% 25.4 mph SW40.9 kmh SW 58.0 mph93.3 kmh 29.62 in1003.0 mb 0.00 in0.0 mm 0.00 in0.0 mm 0.00 in0.0 mm
01:25 AM 45.8°F7.7°C 14.6°F-9.7°C 28% 26.9 mph SW43.3 kmh SW 58.0 mph93.3 kmh 29.61 in1002.7 mb 0.00 in0.0 mm 0.00 in0.0 mm 0.00 in0.0 mm
01:20 AM 45.5°F7.5°C 15.9°F-8.9°C 30% 25.7 mph WSW41.4 kmh WSW 52.0 mph83.7 kmh 29.62 in1003.0 mb 0.00 in0.0 mm 0.00 in0.0 mm 0.00 in0.0 mm
01:15 AM 45.6°F7.6°C 16.7°F-8.5°C 31% 27.7 mph WSW44.6 kmh WSW 59.0 mph95.0 kmh 29.63 in1003.4 mb 0.00 in0.0 mm 0.00 in0.0 mm 0.00 in0.0 mm
01:10 AM 45.8°F7.7°C 16.9°F-8.4°C 31% 25.5 mph WSW41.0 kmh WSW 59.0 mph95.0 kmh 29.63 in1003.4 mb 0.00 in0.0 mm 0.00 in0.0 mm 0.00 in0.0 mm
01:05 AM 45.9°F7.7°C 17.0°F-8.3°C 31% 29.7 mph SW47.8 kmh SW 53.0 mph85.3 kmh 29.64 in1003.7 mb 0.00 in0.0 mm 0.00 in0.0 mm 0.00 in0.0 mm
01:00 AM 46.1°F7.8°C 16.4°F-8.7°C 30% 22.9 mph WSW36.9 kmh WSW 52.0 mph83.7 kmh 29.66 in1004.4 mb 0.00 in0.0 mm 0.00 in0.0 mm 0.00 in0.0 mm
12:55 AM 46.4°F8.0°C 15.9°F-8.9°C 29% 24.7 mph WSW39.8 kmh WSW 52.0 mph83.7 kmh 29.66 in1004.4 mb 0.00 in0.0 mm 0.00 in0.0 mm 0.00 in0.0 mm
12:50 AM 46.3°F7.9°C 15.8°F-9.0°C 29% 22.2 mph WSW35.7 kmh WSW 50.0 mph80.5 kmh 29.67 in1004.7 mb 0.00 in0.0 mm 0.00 in0.0 mm 0.00 in0.0 mm
12:45 AM 46.2°F7.9°C 16.5°F-8.6°C 30% 25.3 mph SW40.7 kmh SW 48.0 mph77.2 kmh 29.67 in1004.7 mb 0.00 in0.0 mm 0.00 in0.0 mm 0.00 in0.0 mm
12:40 AM 46.3°F7.9°C 17.3°F-8.2°C 31% 21.3 mph WSW34.3 kmh WSW 41.0 mph66.0 kmh 29.68 in1005.1 mb 0.00 in0.0 mm 0.00 in0.0 mm 0.00 in0.0 mm
12:35 AM 46.3°F7.9°C 16.6°F-8.6°C 30% 20.0 mph SW32.2 kmh SW 39.0 mph62.8 kmh 29.68 in1005.1 mb 0.00 in0.0 mm 0.00 in0.0 mm 0.00 in0.0 mm
12:30 AM 46.0°F7.8°C 17.1°F-8.3°C 31% 18.9 mph WSW30.4 kmh WSW 40.0 mph64.4 kmh 29.68 in1005.1 mb 0.00 in0.0 mm 0.00 in0.0 mm 0.00 in0.0 mm
12:25 AM 46.1°F7.8°C 17.2°F-8.2°C 31% 18.4 mph WSW29.6 kmh WSW 40.0 mph64.4 kmh 29.68 in1005.1 mb 0.00 in0.0 mm 0.00 in0.0 mm 0.00 in0.0 mm
12:20 AM 45.9°F7.7°C 17.7°F-7.9°C 32% 16.6 mph W26.7 kmh W 32.0 mph51.5 kmh 29.68 in1005.1 mb 0.00 in0.0 mm 0.00 in0.0 mm 0.00 in0.0 mm
12:15 AM 45.9°F7.7°C 18.4°F-7.6°C 33% 15.1 mph W24.3 kmh W 46.0 mph74.0 kmh 29.68 in1005.1 mb 0.00 in0.0 mm 0.00 in0.0 mm 0.00 in0.0 mm
12:10 AM 46.1°F7.8°C 18.6°F-7.4°C 33% 21.0 mph WSW33.8 kmh WSW 46.0 mph74.0 kmh 29.67 in1004.7 mb 0.00 in0.0 mm 0.00 in0.0 mm 0.00 in0.0 mm
12:05 AM 45.8°F7.7°C 19.0°F-7.2°C 34% 19.9 mph WSW32.0 kmh WSW 40.0 mph64.4 kmh 29.69 in1005.4 mb 0.00 in0.0 mm 0.00 in0.0 mm 0.00 in0.0 mm
12:00 AM 45.5°F7.5°C 19.5°F-6.9°C 35% 20.5 mph WSW33.0 kmh WSW 54.0 mph86.9 kmh 29.70 in1005.8 mb 0.00 in0.0 mm 0.00 in0.0 mm 0.00 in0.0 mm